sensor_id;sensor_type;location;lat;lon;timestamp;pressure;altitude;pressure_sealevel;temperature;humidity
10881;BME280;5493;48.884;8.338;2023-04-27T00:02:10;100320.13;;;11.08;100.00
10881;BME280;5493;48.884;8.338;2023-04-27T00:04:37;100314.66;;;11.15;100.00
10881;BME280;5493;48.884;8.338;2023-04-27T00:07:04;100317.25;;;11.28;100.00
10881;BME280;5493;48.884;8.338;2023-04-27T00:09:30;100311.69;;;11.23;100.00
10881;BME280;5493;48.884;8.338;2023-04-27T00:11:57;100303.50;;;11.11;100.00
10881;BME280;5493;48.884;8.338;2023-04-27T00:14:23;100300.97;;;11.16;100.00
10881;BME280;5493;48.884;8.338;2023-04-27T00:16:52;100303.81;;;11.03;100.00
10881;BME280;5493;48.884;8.338;2023-04-27T00:19:20;100297.47;;;10.91;100.00
10881;BME280;5493;48.884;8.338;2023-04-27T00:21:48;100289.84;;;11.06;100.00
10881;BME280;5493;48.884;8.338;2023-04-27T00:24:15;100298.25;;;11.16;100.00
10881;BME280;5493;48.884;8.338;2023-04-27T00:26:42;100295.13;;;11.19;100.00
10881;BME280;5493;48.884;8.338;2023-04-27T00:29:08;100293.59;;;11.05;100.00
10881;BME280;5493;48.884;8.338;2023-04-27T00:31:35;100287.75;;;11.08;100.00
10881;BME280;5493;48.884;8.338;2023-04-27T00:34:02;100288.19;;;11.05;100.00
10881;BME280;5493;48.884;8.338;2023-04-27T00:36:32;100277.47;;;10.99;100.00
10881;BME280;5493;48.884;8.338;2023-04-27T00:38:58;100279.34;;;10.98;100.00
10881;BME280;5493;48.884;8.338;2023-04-27T00:41:25;100276.41;;;11.00;100.00
10881;BME280;5493;48.884;8.338;2023-04-27T00:43:51;100281.50;;;10.90;100.00
10881;BME280;5493;48.884;8.338;2023-04-27T00:46:18;100284.50;;;11.00;100.00
10881;BME280;5493;48.884;8.338;2023-04-27T00:48:45;100289.59;;;10.90;100.00
10881;BME280;5493;48.884;8.338;2023-04-27T00:51:12;100289.75;;;10.95;100.00
10881;BME280;5493;48.884;8.338;2023-04-27T00:53:40;100290.84;;;10.87;100.00
10881;BME280;5493;48.884;8.338;2023-04-27T00:56:07;100297.19;;;10.99;100.00
10881;BME280;5493;48.884;8.338;2023-04-27T00:58:33;100291.94;;;11.04;100.00
10881;BME280;5493;48.884;8.338;2023-04-27T01:01:00;100300.94;;;10.98;100.00
10881;BME280;5493;48.884;8.338;2023-04-27T01:03:27;100298.69;;;10.70;100.00
10881;BME280;5493;48.884;8.338;2023-04-27T01:05:54;100300.25;;;10.78;100.00
10881;BME280;5493;48.884;8.338;2023-04-27T01:08:23;100300.94;;;10.73;100.00
10881;BME280;5493;48.884;8.338;2023-04-27T01:10:51;100296.78;;;10.71;100.00
10881;BME280;5493;48.884;8.338;2023-04-27T01:13:17;100306.34;;;10.73;100.00
10881;BME280;5493;48.884;8.338;2023-04-27T01:15:44;100307.03;;;10.87;100.00
10881;BME280;5493;48.884;8.338;2023-04-27T01:18:11;100299.94;;;10.93;100.00
10881;BME280;5493;48.884;8.338;2023-04-27T01:20:38;100301.91;;;11.04;100.00
10881;BME280;5493;48.884;8.338;2023-04-27T01:23:04;100295.69;;;11.21;100.00
10881;BME280;5493;48.884;8.338;2023-04-27T01:25:32;100295.56;;;11.16;100.00
10881;BME280;5493;48.884;8.338;2023-04-27T01:27:59;100296.69;;;11.27;100.00
10881;BME280;5493;48.884;8.338;2023-04-27T01:30:25;100299.69;;;11.37;100.00
10881;BME280;5493;48.884;8.338;2023-04-27T01:32:52;100307.22;;;11.35;100.00
10881;BME280;5493;48.884;8.338;2023-04-27T01:35:19;100302.41;;;11.37;100.00
10881;BME280;5493;48.884;8.338;2023-04-27T01:37:45;100299.47;;;11.39;100.00
10881;BME280;5493;48.884;8.338;2023-04-27T01:40:12;100301.72;;;11.42;100.00
10881;BME280;5493;48.884;8.338;2023-04-27T01:42:41;100292.34;;;11.44;100.00
10881;BME280;5493;48.884;8.338;2023-04-27T01:45:09;100299.25;;;11.40;100.00
10881;BME280;5493;48.884;8.338;2023-04-27T01:47:35;100300.44;;;11.44;100.00
10881;BME280;5493;48.884;8.338;2023-04-27T01:50:02;100305.25;;;11.42;100.00
10881;BME280;5493;48.884;8.338;2023-04-27T01:52:29;100308.22;;;11.16;100.00
10881;BME280;5493;48.884;8.338;2023-04-27T01:54:55;100306.28;;;10.80;100.00
10881;BME280;5493;48.884;8.338;2023-04-27T01:57:22;100309.16;;;10.85;100.00
10881;BME280;5493;48.884;8.338;2023-04-27T01:59:49;100310.84;;;10.79;100.00
10881;BME280;5493;48.884;8.338;2023-04-27T02:02:16;100312.81;;;10.91;100.00
10881;BME280;5493;48.884;8.338;2023-04-27T02:04:42;100314.19;;;10.75;100.00
10881;BME280;5493;48.884;8.338;2023-04-27T02:07:09;100308.78;;;10.75;100.00
10881;BME280;5493;48.884;8.338;2023-04-27T02:09:36;100310.78;;;10.61;100.00
10881;BME280;5493;48.884;8.338;2023-04-27T02:12:03;100310.25;;;10.77;100.00
10881;BME280;5493;48.884;8.338;2023-04-27T02:14:29;100311.88;;;10.78;100.00
10881;BME280;5493;48.884;8.338;2023-04-27T02:16:57;100310.28;;;10.71;100.00
10881;BME280;5493;48.884;8.338;2023-04-27T02:19:23;100317.44;;;10.83;100.00
10881;BME280;5493;48.884;8.338;2023-04-27T02:21:50;100317.38;;;10.90;100.00
10881;BME280;5493;48.884;8.338;2023-04-27T02:24:17;100315.72;;;10.89;100.00
10881;BME280;5493;48.884;8.338;2023-04-27T02:26:43;100314.59;;;11.03;100.00
10881;BME280;5493;48.884;8.338;2023-04-27T02:29:10;100314.06;;;11.13;100.00
10881;BME280;5493;48.884;8.338;2023-04-27T02:31:36;100323.28;;;11.05;100.00
10881;BME280;5493;48.884;8.338;2023-04-27T02:34:04;100323.81;;;11.14;100.00
10881;BME280;5493;48.884;8.338;2023-04-27T02:36:31;100316.88;;;11.24;100.00
10881;BME280;5493;48.884;8.338;2023-04-27T02:38:57;100321.81;;;11.27;100.00
10881;BME280;5493;48.884;8.338;2023-04-27T02:41:24;100323.50;;;11.22;100.00
10881;BME280;5493;48.884;8.338;2023-04-27T02:43:52;100319.59;;;11.18;100.00
10881;BME280;5493;48.884;8.338;2023-04-27T02:46:18;100318.34;;;11.20;100.00
10881;BME280;5493;48.884;8.338;2023-04-27T02:48:45;100316.13;;;11.17;100.00
10881;BME280;5493;48.884;8.338;2023-04-27T02:51:13;100316.78;;;11.31;100.00
10881;BME280;5493;48.884;8.338;2023-04-27T02:53:39;100321.75;;;11.34;100.00
10881;BME280;5493;48.884;8.338;2023-04-27T02:56:06;100313.34;;;11.42;100.00
10881;BME280;5493;48.884;8.338;2023-04-27T02:58:32;100318.28;;;11.27;100.00
10881;BME280;5493;48.884;8.338;2023-04-27T03:00:59;100320.50;;;11.12;100.00
10881;BME280;5493;48.884;8.338;2023-04-27T03:03:26;100328.91;;;11.22;100.00
10881;BME280;5493;48.884;8.338;2023-04-27T03:05:53;100326.38;;;11.27;100.00
10881;BME280;5493;48.884;8.338;2023-04-27T03:08:21;100324.41;;;11.16;100.00
10881;BME280;5493;48.884;8.338;2023-04-27T03:10:47;100323.81;;;11.14;100.00
10881;BME280;5493;48.884;8.338;2023-04-27T03:13:14;100328.09;;;11.03;100.00
10881;BME280;5493;48.884;8.338;2023-04-27T03:15:40;100325.66;;;10.70;100.00
10881;BME280;5493;48.884;8.338;2023-04-27T03:18:07;100326.44;;;10.77;100.00
10881;BME280;5493;48.884;8.338;2023-04-27T03:20:33;100316.16;;;10.86;100.00
10881;BME280;5493;48.884;8.338;2023-04-27T03:23:00;100328.78;;;10.92;100.00
10881;BME280;5493;48.884;8.338;2023-04-27T03:25:28;100321.94;;;10.90;100.00
10881;BME280;5493;48.884;8.338;2023-04-27T03:27:54;100325.03;;;10.93;100.00
10881;BME280;5493;48.884;8.338;2023-04-27T03:30:21;100323.06;;;10.82;100.00
10881;BME280;5493;48.884;8.338;2023-04-27T03:32:48;100324.66;;;10.65;100.00
10881;BME280;5493;48.884;8.338;2023-04-27T03:35:14;100331.28;;;10.38;100.00
10881;BME280;5493;48.884;8.338;2023-04-27T03:37:41;100329.69;;;10.55;100.00
10881;BME280;5493;48.884;8.338;2023-04-27T03:40:11;100329.22;;;10.64;100.00
10881;BME280;5493;48.884;8.338;2023-04-27T03:42:39;100327.34;;;10.65;100.00
10881;BME280;5493;48.884;8.338;2023-04-27T03:45:07;100322.31;;;10.44;100.00
10881;BME280;5493;48.884;8.338;2023-04-27T03:47:34;100329.72;;;10.23;100.00
10881;BME280;5493;48.884;8.338;2023-04-27T03:50:01;100332.34;;;10.30;100.00
10881;BME280;5493;48.884;8.338;2023-04-27T03:52:27;100334.88;;;10.25;100.00
10881;BME280;5493;48.884;8.338;2023-04-27T03:54:54;100344.41;;;10.21;100.00
10881;BME280;5493;48.884;8.338;2023-04-27T03:57:22;100337.38;;;10.13;100.00
10881;BME280;5493;48.884;8.338;2023-04-27T03:59:49;100337.66;;;9.99;100.00
10881;BME280;5493;48.884;8.338;2023-04-27T04:02:16;100339.56;;;9.98;100.00
10881;BME280;5493;48.884;8.338;2023-04-27T04:04:43;100341.75;;;10.14;100.00
10881;BME280;5493;48.884;8.338;2023-04-27T04:07:09;100348.34;;;10.25;100.00
10881;BME280;5493;48.884;8.338;2023-04-27T04:09:36;100349.06;;;10.45;100.00
10881;BME280;5493;48.884;8.338;2023-04-27T04:12:03;100347.31;;;10.26;100.00
10881;BME280;5493;48.884;8.338;2023-04-27T04:14:30;100348.78;;;10.22;100.00
10881;BME280;5493;48.884;8.338;2023-04-27T04:16:58;100345.78;;;10.36;100.00
10881;BME280;5493;48.884;8.338;2023-04-27T04:19:24;100340.84;;;10.33;100.00
10881;BME280;5493;48.884;8.338;2023-04-27T04:21:51;100343.81;;;10.12;100.00
10881;BME280;5493;48.884;8.338;2023-04-27T04:24:18;100345.59;;;10.31;100.00
10881;BME280;5493;48.884;8.338;2023-04-27T04:26:45;100340.03;;;10.58;100.00
10881;BME280;5493;48.884;8.338;2023-04-27T04:29:12;100347.44;;;10.38;100.00
10881;BME280;5493;48.884;8.338;2023-04-27T04:31:39;100347.16;;;10.14;100.00
10881;BME280;5493;48.884;8.338;2023-04-27T04:34:07;100341.53;;;10.22;100.00
10881;BME280;5493;48.884;8.338;2023-04-27T04:36:34;100343.19;;;10.23;100.00
10881;BME280;5493;48.884;8.338;2023-04-27T04:39:00;100347.06;;;10.27;100.00
10881;BME280;5493;48.884;8.338;2023-04-27T04:41:27;100355.53;;;10.38;100.00
10881;BME280;5493;48.884;8.338;2023-04-27T04:43:54;100354.78;;;10.55;100.00
10881;BME280;5493;48.884;8.338;2023-04-27T04:46:20;100346.78;;;10.73;100.00
10881;BME280;5493;48.884;8.338;2023-04-27T04:48:48;100342.75;;;10.82;100.00
10881;BME280;5493;48.884;8.338;2023-04-27T04:51:17;100340.31;;;10.81;100.00
10881;BME280;5493;48.884;8.338;2023-04-27T04:53:43;100343.16;;;10.86;100.00
10881;BME280;5493;48.884;8.338;2023-04-27T04:56:11;100335.81;;;10.93;100.00
10881;BME280;5493;48.884;8.338;2023-04-27T04:58:38;100338.56;;;10.86;100.00
10881;BME280;5493;48.884;8.338;2023-04-27T05:01:04;100336.66;;;10.69;100.00
10881;BME280;5493;48.884;8.338;2023-04-27T05:03:31;100348.25;;;10.69;100.00
10881;BME280;5493;48.884;8.338;2023-04-27T05:05:57;100341.72;;;10.83;100.00
10881;BME280;5493;48.884;8.338;2023-04-27T05:08:25;100346.03;;;10.91;100.00
10881;BME280;5493;48.884;8.338;2023-04-27T05:10:52;100362.44;;;10.58;100.00
10881;BME280;5493;48.884;8.338;2023-04-27T05:13:19;100365.53;;;10.30;100.00
10881;BME280;5493;48.884;8.338;2023-04-27T05:15:46;100363.22;;;10.27;100.00
10881;BME280;5493;48.884;8.338;2023-04-27T05:18:12;100368.00;;;10.32;100.00
10881;BME280;5493;48.884;8.338;2023-04-27T05:20:39;100370.72;;;10.63;100.00
10881;BME280;5493;48.884;8.338;2023-04-27T05:23:06;100370.59;;;10.52;100.00
10881;BME280;5493;48.884;8.338;2023-04-27T05:25:34;100371.75;;;10.62;100.00
10881;BME280;5493;48.884;8.338;2023-04-27T05:28:05;100373.06;;;10.78;100.00
10881;BME280;5493;48.884;8.338;2023-04-27T05:30:32;100378.22;;;11.11;100.00
10881;BME280;5493;48.884;8.338;2023-04-27T05:32:59;100375.13;;;10.82;100.00
10881;BME280;5493;48.884;8.338;2023-04-27T05:35:25;100379.44;;;10.59;100.00
10881;BME280;5493;48.884;8.338;2023-04-27T05:37:52;100376.06;;;10.95;100.00
10881;BME280;5493;48.884;8.338;2023-04-27T05:40:18;100386.16;;;11.30;100.00
10881;BME280;5493;48.884;8.338;2023-04-27T05:42:46;100395.31;;;11.48;100.00
10881;BME280;5493;48.884;8.338;2023-04-27T05:45:13;100391.94;;;11.34;100.00
10881;BME280;5493;48.884;8.338;2023-04-27T05:47:40;100390.38;;;11.45;100.00
10881;BME280;5493;48.884;8.338;2023-04-27T05:50:07;100390.41;;;11.63;100.00
10881;BME280;5493;48.884;8.338;2023-04-27T05:52:34;100387.47;;;11.64;100.00
10881;BME280;5493;48.884;8.338;2023-04-27T05:55:00;100394.50;;;11.65;100.00
10881;BME280;5493;48.884;8.338;2023-04-27T05:57:27;100399.22;;;11.76;100.00
10881;BME280;5493;48.884;8.338;2023-04-27T05:59:57;100398.53;;;11.81;100.00
10881;BME280;5493;48.884;8.338;2023-04-27T06:02:24;100412.25;;;11.98;100.00
10881;BME280;5493;48.884;8.338;2023-04-27T06:04:51;100419.88;;;12.07;100.00
10881;BME280;5493;48.884;8.338;2023-04-27T06:07:17;100411.28;;;11.74;100.00
10881;BME280;5493;48.884;8.338;2023-04-27T06:09:44;100418.94;;;11.95;100.00
10881;BME280;5493;48.884;8.338;2023-04-27T06:12:10;100424.13;;;11.78;100.00
10881;BME280;5493;48.884;8.338;2023-04-27T06:14:37;100424.19;;;11.90;100.00
10881;BME280;5493;48.884;8.338;2023-04-27T06:17:05;100424.72;;;12.17;100.00
10881;BME280;5493;48.884;8.338;2023-04-27T06:19:32;100419.94;;;12.19;100.00
10881;BME280;5493;48.884;8.338;2023-04-27T06:21:58;100415.03;;;12.09;100.00
10881;BME280;5493;48.884;8.338;2023-04-27T06:24:25;100425.03;;;12.09;100.00
10881;BME280;5493;48.884;8.338;2023-04-27T06:26:52;100424.72;;;12.35;100.00
10881;BME280;5493;48.884;8.338;2023-04-27T06:29:19;100419.31;;;12.17;100.00
10881;BME280;5493;48.884;8.338;2023-04-27T06:31:45;100414.97;;;12.16;100.00
10881;BME280;5493;48.884;8.338;2023-04-27T06:34:13;100415.94;;;12.69;100.00
10881;BME280;5493;48.884;8.338;2023-04-27T06:36:40;100419.66;;;12.98;100.00
10881;BME280;5493;48.884;8.338;2023-04-27T06:39:06;100427.75;;;12.57;100.00
10881;BME280;5493;48.884;8.338;2023-04-27T06:41:33;100422.56;;;13.26;100.00
10881;BME280;5493;48.884;8.338;2023-04-27T06:43:59;100423.25;;;13.22;100.00
10881;BME280;5493;48.884;8.338;2023-04-27T06:46:26;100427.88;;;13.33;100.00
10881;BME280;5493;48.884;8.338;2023-04-27T06:48:52;100421.97;;;13.94;100.00
10881;BME280;5493;48.884;8.338;2023-04-27T06:51:20;100428.22;;;13.37;100.00
10881;BME280;5493;48.884;8.338;2023-04-27T06:53:47;100433.66;;;13.60;100.00
10881;BME280;5493;48.884;8.338;2023-04-27T06:56:13;100425.56;;;14.11;100.00
10881;BME280;5493;48.884;8.338;2023-04-27T06:58:40;100423.44;;;14.25;100.00
10881;BME280;5493;48.884;8.338;2023-04-27T07:01:06;100427.59;;;14.84;100.00
10881;BME280;5493;48.884;8.338;2023-04-27T07:03:33;100429.28;;;14.34;100.00
10881;BME280;5493;48.884;8.338;2023-04-27T07:06:00;100429.19;;;15.13;100.00
10881;BME280;5493;48.884;8.338;2023-04-27T07:08:28;100428.91;;;14.98;100.00
10881;BME280;5493;48.884;8.338;2023-04-27T07:10:55;100430.75;;;15.09;100.00
10881;BME280;5493;48.884;8.338;2023-04-27T07:13:21;100424.16;;;16.32;100.00
10881;BME280;5493;48.884;8.338;2023-04-27T07:15:53;100430.03;;;15.81;100.00
10881;BME280;5493;48.884;8.338;2023-04-27T07:18:20;100419.69;;;16.91;100.00
10881;BME280;5493;48.884;8.338;2023-04-27T07:20:46;100429.72;;;16.64;100.00
10881;BME280;5493;48.884;8.338;2023-04-27T07:23:12;100421.47;;;17.44;100.00
10881;BME280;5493;48.884;8.338;2023-04-27T07:25:40;100428.81;;;16.80;100.00
10881;BME280;5493;48.884;8.338;2023-04-27T07:28:07;100420.88;;;16.52;100.00
10881;BME280;5493;48.884;8.338;2023-04-27T07:30:34;100422.25;;;17.08;100.00
10881;BME280;5493;48.884;8.338;2023-04-27T07:33:01;100421.63;;;16.96;100.00
10881;BME280;5493;48.884;8.338;2023-04-27T07:35:27;100426.66;;;16.82;100.00
10881;BME280;5493;48.884;8.338;2023-04-27T07:37:54;100421.06;;;16.94;100.00
10881;BME280;5493;48.884;8.338;2023-04-27T07:40:21;100416.19;;;18.01;100.00
10881;BME280;5493;48.884;8.338;2023-04-27T07:42:49;100416.53;;;17.73;100.00
10881;BME280;5493;48.884;8.338;2023-04-27T07:45:16;100407.75;;;19.10;100.00
10881;BME280;5493;48.884;8.338;2023-04-27T07:47:42;100408.59;;;19.06;100.00
10881;BME280;5493;48.884;8.338;2023-04-27T07:50:09;100407.13;;;19.94;96.98
10881;BME280;5493;48.884;8.338;2023-04-27T07:52:37;100404.13;;;19.96;93.95
10881;BME280;5493;48.884;8.338;2023-04-27T07:55:04;100412.13;;;19.22;100.00
10881;BME280;5493;48.884;8.338;2023-04-27T07:57:30;100399.75;;;19.90;100.00
10881;BME280;5493;48.884;8.338;2023-04-27T07:59:58;100398.31;;;18.46;100.00
10881;BME280;5493;48.884;8.338;2023-04-27T08:02:26;100389.72;;;19.14;99.56
10881;BME280;5493;48.884;8.338;2023-04-27T08:04:54;100395.31;;;20.14;100.00
10881;BME280;5493;48.884;8.338;2023-04-27T08:07:21;100392.19;;;21.24;94.21
10881;BME280;5493;48.884;8.338;2023-04-27T08:09:49;100395.75;;;20.46;84.00
10881;BME280;5493;48.884;8.338;2023-04-27T08:12:16;100399.56;;;21.28;80.95
10881;BME280;5493;48.884;8.338;2023-04-27T08:14:43;100394.81;;;21.05;80.38
10881;BME280;5493;48.884;8.338;2023-04-27T08:17:11;100392.94;;;21.34;74.66
10881;BME280;5493;48.884;8.338;2023-04-27T08:19:38;100397.25;;;22.22;72.86
10881;BME280;5493;48.884;8.338;2023-04-27T08:22:05;100394.69;;;21.78;77.50
10881;BME280;5493;48.884;8.338;2023-04-27T08:24:32;100393.34;;;21.51;78.16
10881;BME280;5493;48.884;8.338;2023-04-27T08:26:59;100395.75;;;22.90;71.35
10881;BME280;5493;48.884;8.338;2023-04-27T08:29:28;100386.75;;;22.47;63.25
10881;BME280;5493;48.884;8.338;2023-04-27T08:31:58;100389.63;;;21.37;75.59
10881;BME280;5493;48.884;8.338;2023-04-27T08:34:26;100384.28;;;22.27;68.82
10881;BME280;5493;48.884;8.338;2023-04-27T08:36:53;100380.94;;;22.30;78.09
10881;BME280;5493;48.884;8.338;2023-04-27T08:39:20;100386.56;;;23.00;71.62
10881;BME280;5493;48.884;8.338;2023-04-27T08:41:47;100389.81;;;21.46;78.10
10881;BME280;5493;48.884;8.338;2023-04-27T08:44:13;100388.50;;;23.32;71.43
10881;BME280;5493;48.884;8.338;2023-04-27T08:46:40;100380.66;;;23.71;67.16
10881;BME280;5493;48.884;8.338;2023-04-27T08:49:06;100389.09;;;23.29;73.73
10881;BME280;5493;48.884;8.338;2023-04-27T08:51:50;100389.97;;;21.59;76.06
10881;BME280;5493;48.884;8.338;2023-04-27T08:54:19;100383.25;;;23.17;74.43
10881;BME280;5493;48.884;8.338;2023-04-27T08:56:46;100385.75;;;22.81;76.22
10881;BME280;5493;48.884;8.338;2023-04-27T08:59:13;100384.25;;;23.07;70.13
10881;BME280;5493;48.884;8.338;2023-04-27T09:01:44;100381.34;;;23.31;71.74
10881;BME280;5493;48.884;8.338;2023-04-27T09:04:13;100375.56;;;23.32;73.21
10881;BME280;5493;48.884;8.338;2023-04-27T09:06:39;100374.56;;;22.35;70.36
10881;BME280;5493;48.884;8.338;2023-04-27T09:09:07;100379.47;;;22.56;72.74
10881;BME280;5493;48.884;8.338;2023-04-27T09:11:37;100366.06;;;23.57;69.72
10881;BME280;5493;48.884;8.338;2023-04-27T09:14:15;100367.72;;;23.72;62.23
10881;BME280;5493;48.884;8.338;2023-04-27T09:16:42;100376.13;;;22.60;74.51
10881;BME280;5493;48.884;8.338;2023-04-27T09:19:09;100371.16;;;23.77;72.03
10881;BME280;5493;48.884;8.338;2023-04-27T09:21:35;100390.28;;;24.15;65.87
10881;BME280;5493;48.884;8.338;2023-04-27T09:24:11;100379.00;;;25.24;59.66
10881;BME280;5493;48.884;8.338;2023-04-27T09:26:38;100376.69;;;24.05;59.31
10881;BME280;5493;48.884;8.338;2023-04-27T09:29:05;100374.38;;;24.25;60.79
10881;BME280;5493;48.884;8.338;2023-04-27T09:31:33;100366.31;;;23.10;66.18
10881;BME280;5493;48.884;8.338;2023-04-27T09:34:00;100370.16;;;24.28;59.81
10881;BME280;5493;48.884;8.338;2023-04-27T09:36:27;100374.38;;;24.25;53.51
10881;BME280;5493;48.884;8.338;2023-04-27T09:38:55;100371.97;;;24.60;52.43
10881;BME280;5493;48.884;8.338;2023-04-27T09:41:24;100375.06;;;24.80;51.61
10881;BME280;5493;48.884;8.338;2023-04-27T09:43:50;100380.94;;;24.65;53.95
10881;BME280;5493;48.884;8.338;2023-04-27T09:46:18;100373.47;;;23.11;51.30
10881;BME280;5493;48.884;8.338;2023-04-27T09:48:45;100369.84;;;23.75;56.85
10881;BME280;5493;48.884;8.338;2023-04-27T09:51:13;100372.81;;;23.32;57.35
10881;BME280;5493;48.884;8.338;2023-04-27T09:53:45;100367.19;;;23.70;55.88
10881;BME280;5493;48.884;8.338;2023-04-27T09:56:27;100363.22;;;24.17;52.66
10881;BME280;5493;48.884;8.338;2023-04-27T09:59:19;100369.63;;;23.98;51.33
10881;BME280;5493;48.884;8.338;2023-04-27T10:01:50;100362.75;;;23.09;54.26
10881;BME280;5493;48.884;8.338;2023-04-27T10:04:33;100360.22;;;23.45;50.72
10881;BME280;5493;48.884;8.338;2023-04-27T10:07:03;100359.59;;;22.22;60.06
10881;BME280;5493;48.884;8.338;2023-04-27T10:09:35;100357.97;;;22.82;51.69
10881;BME280;5493;48.884;8.338;2023-04-27T10:12:17;100365.94;;;23.16;49.13
10881;BME280;5493;48.884;8.338;2023-04-27T10:14:47;100359.94;;;22.95;53.21
10881;BME280;5493;48.884;8.338;2023-04-27T10:17:15;100341.69;;;23.78;55.50
10881;BME280;5493;48.884;8.338;2023-04-27T10:19:52;100352.22;;;23.76;48.15
10881;BME280;5493;48.884;8.338;2023-04-27T10:22:20;100347.09;;;24.37;49.26
10881;BME280;5493;48.884;8.338;2023-04-27T10:24:48;100347.72;;;23.93;48.21
10881;BME280;5493;48.884;8.338;2023-04-27T10:27:17;100354.22;;;22.54;47.01
10881;BME280;5493;48.884;8.338;2023-04-27T10:29:47;100353.44;;;24.74;45.97
10881;BME280;5493;48.884;8.338;2023-04-27T10:32:18;100347.22;;;23.32;46.38
10881;BME280;5493;48.884;8.338;2023-04-27T10:34:47;100346.56;;;23.08;46.93
10881;BME280;5493;48.884;8.338;2023-04-27T10:37:16;100352.31;;;24.12;51.21
10881;BME280;5493;48.884;8.338;2023-04-27T10:39:45;100344.13;;;23.52;50.34
10881;BME280;5493;48.884;8.338;2023-04-27T10:42:11;100349.28;;;25.29;47.33
10881;BME280;5493;48.884;8.338;2023-04-27T10:44:39;100340.78;;;24.37;45.63
10881;BME280;5493;48.884;8.338;2023-04-27T10:47:13;100338.88;;;24.95;44.21
10881;BME280;5493;48.884;8.338;2023-04-27T10:49:40;100332.97;;;25.64;45.57
10881;BME280;5493;48.884;8.338;2023-04-27T10:52:07;100339.28;;;25.11;44.05
10881;BME280;5493;48.884;8.338;2023-04-27T10:54:34;100335.69;;;25.33;44.17
10881;BME280;5493;48.884;8.338;2023-04-27T10:57:03;100333.75;;;25.33;44.81
10881;BME280;5493;48.884;8.338;2023-04-27T10:59:29;100331.72;;;24.94;42.71
10881;BME280;5493;48.884;8.338;2023-04-27T11:01:57;100331.75;;;23.36;43.62
10881;BME280;5493;48.884;8.338;2023-04-27T11:04:34;100327.31;;;25.16;42.05
10881;BME280;5493;48.884;8.338;2023-04-27T11:07:02;100327.41;;;24.03;42.08
10881;BME280;5493;48.884;8.338;2023-04-27T11:09:29;100332.19;;;23.43;44.92
10881;BME280;5493;48.884;8.338;2023-04-27T11:11:56;100324.41;;;22.99;48.05
10881;BME280;5493;48.884;8.338;2023-04-27T11:14:23;100328.66;;;23.37;46.68
10881;BME280;5493;48.884;8.338;2023-04-27T11:16:49;100328.22;;;22.84;51.08
10881;BME280;5493;48.884;8.338;2023-04-27T11:19:17;100324.25;;;23.96;47.41
10881;BME280;5493;48.884;8.338;2023-04-27T11:21:44;100318.72;;;22.77;47.42
10881;BME280;5493;48.884;8.338;2023-04-27T11:24:10;100315.16;;;23.09;48.69
10881;BME280;5493;48.884;8.338;2023-04-27T11:26:37;100317.41;;;24.07;50.96
10881;BME280;5493;48.884;8.338;2023-04-27T11:29:05;100311.25;;;24.73;46.24
10881;BME280;5493;48.884;8.338;2023-04-27T11:31:39;100309.47;;;25.22;44.24
10881;BME280;5493;48.884;8.338;2023-04-27T11:34:06;100314.94;;;25.35;44.53
10881;BME280;5493;48.884;8.338;2023-04-27T11:36:34;100314.78;;;24.52;41.27
10881;BME280;5493;48.884;8.338;2023-04-27T11:39:02;100304.06;;;24.00;43.81
10881;BME280;5493;48.884;8.338;2023-04-27T11:41:34;100306.28;;;24.12;47.07
10881;BME280;5493;48.884;8.338;2023-04-27T11:44:05;100296.16;;;24.35;39.57
10881;BME280;5493;48.884;8.338;2023-04-27T11:46:34;100293.28;;;25.60;42.56
10881;BME280;5493;48.884;8.338;2023-04-27T11:49:02;100296.72;;;24.45;40.44
10881;BME280;5493;48.884;8.338;2023-04-27T11:51:30;100292.63;;;24.21;42.36
10881;BME280;5493;48.884;8.338;2023-04-27T11:54:02;100290.03;;;24.38;41.96
10881;BME280;5493;48.884;8.338;2023-04-27T11:56:36;100282.88;;;23.87;41.54
10881;BME280;5493;48.884;8.338;2023-04-27T11:59:04;100286.47;;;24.10;41.43
10881;BME280;5493;48.884;8.338;2023-04-27T12:01:32;100289.91;;;24.43;42.50
10881;BME280;5493;48.884;8.338;2023-04-27T12:03:59;100284.16;;;25.20;40.03
10881;BME280;5493;48.884;8.338;2023-04-27T12:06:27;100281.31;;;25.73;38.34
10881;BME280;5493;48.884;8.338;2023-04-27T12:08:54;100282.41;;;25.02;43.29
10881;BME280;5493;48.884;8.338;2023-04-27T12:11:23;100272.00;;;25.21;43.78
10881;BME280;5493;48.884;8.338;2023-04-27T12:13:52;100275.22;;;24.92;42.39
10881;BME280;5493;48.884;8.338;2023-04-27T12:16:18;100273.78;;;25.56;40.45
10881;BME280;5493;48.884;8.338;2023-04-27T12:18:46;100267.31;;;25.69;41.03
10881;BME280;5493;48.884;8.338;2023-04-27T12:21:13;100263.34;;;25.14;41.80
10881;BME280;5493;48.884;8.338;2023-04-27T12:23:40;100265.69;;;25.60;42.43
10881;BME280;5493;48.884;8.338;2023-04-27T12:26:06;100257.81;;;25.92;36.46
10881;BME280;5493;48.884;8.338;2023-04-27T12:28:34;100256.88;;;25.58;36.47
10881;BME280;5493;48.884;8.338;2023-04-27T12:31:01;100260.38;;;25.80;37.21
10881;BME280;5493;48.884;8.338;2023-04-27T12:33:29;100259.47;;;26.11;38.49
10881;BME280;5493;48.884;8.338;2023-04-27T12:35:55;100258.03;;;26.22;38.43
10881;BME280;5493;48.884;8.338;2023-04-27T12:38:22;100258.47;;;25.89;40.73
10881;BME280;5493;48.884;8.338;2023-04-27T12:40:48;100248.38;;;26.02;40.78
10881;BME280;5493;48.884;8.338;2023-04-27T12:43:15;100259.59;;;25.49;38.07
10881;BME280;5493;48.884;8.338;2023-04-27T12:45:43;100257.47;;;25.46;38.02
10881;BME280;5493;48.884;8.338;2023-04-27T12:48:10;100250.75;;;25.30;38.35
10881;BME280;5493;48.884;8.338;2023-04-27T12:50:36;100250.19;;;25.50;41.16
10881;BME280;5493;48.884;8.338;2023-04-27T12:53:03;100251.16;;;25.45;41.37
10881;BME280;5493;48.884;8.338;2023-04-27T12:55:29;100258.22;;;24.54;37.60
10881;BME280;5493;48.884;8.338;2023-04-27T12:57:56;100254.56;;;25.12;39.29